createdAt,value
2017-08-31T00:00:27.114Z,7.30
2017-08-31T00:01:29.702Z,7.93
2017-08-31T00:02:32.243Z,7.12
2017-08-31T00:03:34.915Z,8.07
2017-08-31T00:04:37.500Z,7.85
2017-08-31T00:05:40.042Z,8.05
2017-08-31T00:06:43.420Z,7.65
2017-08-31T00:07:46.177Z,7.95
2017-08-31T00:08:48.725Z,6.80
2017-08-31T00:09:51.323Z,7.37
2017-08-31T00:10:53.877Z,7.18
2017-08-31T00:11:56.437Z,7.00
2017-08-31T00:12:58.982Z,7.28
2017-08-31T00:14:01.541Z,8.15
2017-08-31T00:15:04.152Z,8.05
2017-08-31T00:16:06.720Z,7.85
2017-08-31T00:17:09.268Z,8.23
2017-08-31T00:18:11.814Z,7.55
2017-08-31T00:19:14.372Z,7.97
2017-08-31T00:20:17.004Z,8.30
2017-08-31T00:21:19.555Z,7.37
2017-08-31T00:22:22.122Z,8.10
2017-08-31T00:23:24.734Z,8.18
2017-08-31T00:24:27.906Z,8.10
2017-08-31T00:25:30.522Z,8.05
2017-08-31T00:26:33.116Z,8.10
2017-08-31T00:27:35.653Z,8.02
2017-08-31T00:28:38.193Z,8.10
2017-08-31T00:29:41.509Z,7.80
2017-08-31T00:30:44.124Z,7.97
2017-08-31T00:31:46.670Z,7.78
2017-08-31T00:32:49.221Z,8.35
2017-08-31T00:33:51.780Z,7.35
2017-08-31T00:34:54.312Z,6.78
2017-08-31T00:35:56.923Z,7.50
2017-08-31T00:36:59.475Z,8.38
2017-08-31T00:38:02.036Z,7.50
2017-08-31T00:39:04.574Z,7.15
2017-08-31T00:40:07.127Z,7.78
2017-08-31T00:41:09.735Z,8.20
2017-08-31T00:42:12.921Z,8.05
2017-08-31T00:43:15.529Z,7.95
2017-08-31T00:44:18.066Z,8.30
2017-08-31T00:45:20.602Z,8.57
2017-08-31T00:46:23.206Z,8.25
2017-08-31T00:47:25.820Z,8.23
2017-08-31T00:48:28.365Z,7.25
2017-08-31T00:49:30.935Z,7.53
2017-08-31T00:50:34.234Z,7.95
2017-08-31T00:51:36.805Z,8.23
2017-08-31T00:52:39.424Z,8.18
2017-08-31T00:53:42.768Z,8.48
2017-08-31T00:54:45.335Z,8.30
2017-08-31T00:55:48.011Z,8.88
2017-08-31T00:56:50.633Z,9.75
2017-08-31T00:57:53.211Z,8.80
2017-08-31T00:58:55.756Z,8.20
2017-08-31T00:59:58.337Z,7.82
2017-08-31T01:01:00.902Z,8.43
2017-08-31T01:02:03.524Z,8.02
2017-08-31T01:03:06.067Z,7.47
2017-08-31T01:04:08.713Z,7.85
2017-08-31T01:05:11.269Z,8.13
2017-08-31T01:06:13.813Z,7.80
2017-08-31T01:07:16.394Z,8.40
2017-08-31T01:08:18.958Z,7.82
2017-08-31T01:09:21.538Z,8.50
2017-08-31T01:10:24.103Z,8.43
2017-08-31T01:11:26.649Z,8.55
2017-08-31T01:12:29.254Z,8.27
2017-08-31T01:13:31.807Z,8.30
2017-08-31T01:14:34.346Z,8.32
2017-08-31T01:15:36.891Z,7.82
2017-08-31T01:16:39.438Z,8.50
2017-08-31T01:17:42.143Z,8.05
2017-08-31T01:18:44.823Z,8.75
2017-08-31T01:19:47.456Z,8.05
2017-08-31T01:20:49.993Z,8.43
2017-08-31T01:21:52.588Z,8.52
2017-08-31T01:22:55.181Z,8.55
2017-08-31T01:23:57.765Z,8.30
2017-08-31T01:25:00.386Z,8.93
2017-08-31T01:26:02.940Z,8.82
2017-08-31T01:27:05.516Z,7.87
2017-08-31T01:28:08.124Z,8.52
2017-08-31T01:29:10.697Z,8.45
2017-08-31T01:30:13.246Z,8.25
2017-08-31T01:31:15.803Z,8.10
2017-08-31T01:32:18.481Z,7.80
2017-08-31T01:33:21.222Z,8.18
2017-08-31T01:34:23.773Z,8.60
2017-08-31T01:35:26.302Z,7.72
2017-08-31T01:36:28.855Z,8.88
2017-08-31T01:37:31.422Z,8.85
2017-08-31T01:38:34.038Z,7.20
2017-08-31T01:39:36.569Z,8.02
2017-08-31T01:40:39.217Z,9.15
2017-08-31T01:41:41.779Z,8.52
2017-08-31T01:42:44.366Z,8.10
2017-08-31T01:43:47.806Z,8.43
2017-08-31T01:44:50.474Z,8.00
2017-08-31T01:45:53.060Z,8.50
2017-08-31T01:46:55.627Z,8.55
2017-08-31T01:47:58.215Z,8.05
2017-08-31T01:49:00.874Z,8.57
2017-08-31T01:50:03.479Z,8.55
2017-08-31T01:51:06.117Z,8.95
2017-08-31T01:52:08.810Z,8.30
2017-08-31T01:53:11.423Z,9.07
2017-08-31T01:54:14.027Z,8.38
2017-08-31T01:55:16.593Z,8.77
2017-08-31T01:56:19.131Z,8.10
2017-08-31T01:57:21.679Z,8.30
2017-08-31T01:58:24.218Z,8.38
2017-08-31T01:59:26.821Z,8.63
2017-08-31T02:00:29.373Z,8.45
2017-08-31T02:01:31.900Z,8.20
2017-08-31T02:02:34.502Z,8.10
2017-08-31T02:03:37.058Z,8.57
2017-08-31T02:04:39.654Z,9.15
2017-08-31T02:05:42.227Z,8.90
2017-08-31T02:06:44.782Z,8.88
2017-08-31T02:07:47.337Z,8.38
2017-08-31T02:08:49.886Z,8.80
2017-08-31T02:09:52.586Z,8.93
2017-08-31T02:10:55.122Z,9.50
2017-08-31T02:11:57.725Z,8.20
2017-08-31T02:13:00.276Z,9.00
2017-08-31T02:14:02.842Z,9.30
2017-08-31T02:15:05.433Z,8.93
2017-08-31T02:16:08.758Z,8.80
2017-08-31T02:17:11.290Z,8.35
2017-08-31T02:18:13.950Z,8.52
2017-08-31T02:19:16.525Z,8.98
2017-08-31T02:20:19.127Z,7.97
2017-08-31T02:21:21.705Z,8.57
2017-08-31T02:22:24.272Z,9.00
2017-08-31T02:23:26.870Z,8.70
2017-08-31T02:24:29.500Z,8.45
2017-08-31T02:25:32.120Z,9.07
2017-08-31T02:26:35.426Z,8.85
2017-08-31T02:27:37.983Z,8.75
2017-08-31T02:28:40.549Z,8.85
2017-08-31T02:29:43.086Z,8.68
2017-08-31T02:30:45.673Z,8.73
2017-08-31T02:31:48.244Z,8.80
2017-08-31T02:32:50.792Z,8.68
2017-08-31T02:33:53.353Z,8.60
2017-08-31T02:34:56.414Z,8.50
2017-08-31T02:35:59.019Z,8.73
2017-08-31T02:37:02.363Z,8.40
2017-08-31T02:38:05.177Z,8.98
2017-08-31T02:39:07.800Z,8.43
2017-08-31T02:40:10.363Z,9.25
2017-08-31T02:41:12.999Z,8.70
2017-08-31T02:42:15.538Z,8.57
2017-08-31T02:43:18.111Z,8.85
2017-08-31T02:44:20.662Z,8.43
2017-08-31T02:45:24.476Z,8.75
2017-08-31T02:46:27.051Z,8.55
2017-08-31T02:47:29.663Z,9.07
2017-08-31T02:48:32.260Z,8.75
2017-08-31T02:49:34.829Z,9.07
2017-08-31T02:50:37.419Z,7.95
2017-08-31T02:51:40.033Z,8.52
2017-08-31T02:52:42.600Z,8.80
2017-08-31T02:53:45.218Z,9.15
2017-08-31T02:54:47.765Z,8.98
2017-08-31T02:55:50.303Z,9.18
2017-08-31T02:56:53.042Z,8.50
2017-08-31T02:57:55.588Z,9.15
2017-08-31T02:58:58.145Z,8.75
2017-08-31T03:00:00.799Z,8.95
2017-08-31T03:01:03.648Z,7.97
2017-08-31T03:02:06.361Z,8.85
2017-08-31T03:03:09.012Z,8.05
2017-08-31T03:04:11.620Z,8.50
2017-08-31T03:05:14.171Z,9.20
2017-08-31T03:06:16.778Z,8.82
2017-08-31T03:07:19.423Z,8.65
2017-08-31T03:08:22.053Z,8.95
2017-08-31T03:09:24.619Z,8.73
2017-08-31T03:10:27.174Z,8.90
2017-08-31T03:11:29.732Z,8.52
2017-08-31T03:12:32.445Z,9.02
2017-08-31T03:13:35.037Z,9.32
2017-08-31T03:14:37.585Z,9.65
2017-08-31T03:15:40.190Z,8.90
2017-08-31T03:16:42.756Z,8.85
2017-08-31T03:17:45.327Z,9.52
2017-08-31T03:18:47.875Z,9.75
2017-08-31T03:19:50.518Z,9.20
2017-08-31T03:20:53.520Z,9.77
2017-08-31T03:21:56.409Z,9.73
2017-08-31T03:22:59.259Z,8.70
2017-08-31T03:24:02.037Z,8.75
2017-08-31T03:25:06.238Z,9.80
2017-08-31T03:26:08.845Z,9.90
2017-08-31T03:27:11.555Z,9.68
2017-08-31T03:28:14.097Z,9.15
2017-08-31T03:29:16.651Z,9.40
2017-08-31T03:30:19.269Z,9.82
2017-08-31T03:31:21.898Z,9.60
2017-08-31T03:32:25.251Z,10.15
2017-08-31T03:33:27.790Z,10.38
2017-08-31T03:34:30.980Z,10.18
2017-08-31T03:35:33.559Z,9.75
2017-08-31T03:36:36.273Z,10.07
2017-08-31T03:37:38.882Z,9.30
2017-08-31T03:38:41.504Z,10.02
2017-08-31T03:39:45.560Z,9.95
2017-08-31T03:40:48.201Z,9.77
2017-08-31T03:41:50.811Z,9.95
2017-08-31T03:42:53.374Z,9.95
2017-08-31T03:43:55.940Z,11.05
2017-08-31T03:44:58.525Z,10.43
2017-08-31T03:46:01.066Z,11.23
2017-08-31T03:47:03.678Z,10.30
2017-08-31T03:48:06.479Z,10.93
2017-08-31T03:49:09.346Z,10.18
2017-08-31T03:50:11.904Z,11.15
2017-08-31T03:51:14.456Z,10.70
2017-08-31T03:52:17.058Z,10.68
2017-08-31T03:53:19.614Z,10.60
2017-08-31T03:54:22.260Z,11.50
2017-08-31T03:55:24.797Z,11.38
2017-08-31T03:56:27.371Z,11.18
2017-08-31T03:57:29.979Z,11.50
2017-08-31T03:58:32.559Z,11.05
2017-08-31T03:59:35.106Z,11.25
2017-08-31T04:00:38.424Z,12.20
2017-08-31T04:01:40.960Z,11.57
2017-08-31T04:02:43.610Z,11.70
2017-08-31T04:03:46.163Z,11.15
2017-08-31T04:04:48.788Z,11.93
2017-08-31T04:05:51.342Z,12.15
2017-08-31T04:06:53.894Z,11.57
2017-08-31T04:07:56.523Z,12.18
2017-08-31T04:08:59.068Z,12.20
2017-08-31T04:10:01.603Z,11.35
2017-08-31T04:11:04.930Z,11.25
2017-08-31T04:12:07.508Z,12.15
2017-08-31T04:13:10.084Z,12.37
2017-08-31T04:14:12.622Z,12.52
2017-08-31T04:15:15.928Z,11.77
2017-08-31T04:16:18.492Z,12.25
2017-08-31T04:17:21.054Z,11.73
2017-08-31T04:18:23.648Z,11.57
2017-08-31T04:19:27.210Z,11.45
2017-08-31T04:20:29.764Z,11.95
2017-08-31T04:21:32.306Z,12.70
2017-08-31T04:22:34.863Z,12.45
2017-08-31T04:23:37.475Z,12.02
2017-08-31T04:24:40.025Z,12.05
2017-08-31T04:25:42.562Z,12.65
2017-08-31T04:26:45.085Z,11.85
2017-08-31T04:27:47.640Z,11.80
2017-08-31T04:28:50.233Z,12.85
2017-08-31T04:29:52.782Z,12.63
2017-08-31T04:30:55.333Z,12.50
2017-08-31T04:31:57.908Z,12.40
2017-08-31T04:33:00.461Z,12.13
2017-08-31T04:34:03.079Z,11.20
2017-08-31T04:35:05.643Z,12.37
2017-08-31T04:36:08.187Z,13.00
2017-08-31T04:37:11.567Z,12.80
2017-08-31T04:38:14.220Z,12.02
2017-08-31T04:39:16.827Z,11.90
2017-08-31T04:40:19.379Z,12.18
2017-08-31T04:41:21.922Z,12.70
2017-08-31T04:42:24.494Z,12.98
2017-08-31T04:43:27.124Z,12.00
2017-08-31T04:44:29.720Z,12.10
2017-08-31T04:45:32.286Z,12.30
2017-08-31T04:46:34.833Z,11.93
2017-08-31T04:47:37.435Z,13.35
2017-08-31T04:48:40.469Z,11.48
2017-08-31T04:49:43.062Z,13.23
2017-08-31T04:50:45.624Z,11.60
2017-08-31T04:51:48.159Z,12.73
2017-08-31T04:52:50.775Z,12.95
2017-08-31T04:55:01.264Z,12.90
2017-08-31T04:56:03.856Z,12.63
2017-08-31T04:57:07.424Z,12.85
2017-08-31T04:58:09.963Z,12.35
2017-08-31T04:59:12.602Z,11.15
2017-08-31T05:00:15.913Z,12.98
2017-08-31T05:01:18.489Z,11.82
2017-08-31T05:02:21.047Z,12.55
2017-08-31T05:03:23.613Z,12.30
2017-08-31T05:04:26.419Z,11.60
2017-08-31T05:05:28.954Z,11.70
2017-08-31T05:06:31.554Z,12.20
2017-08-31T05:07:34.119Z,11.63
2017-08-31T05:08:36.686Z,11.70
2017-08-31T05:09:39.252Z,10.80
2017-08-31T05:10:41.792Z,11.07
2017-08-31T05:11:44.384Z,11.70
2017-08-31T05:12:46.953Z,11.23
2017-08-31T05:13:49.505Z,12.13
2017-08-31T05:14:52.048Z,12.00
2017-08-31T05:15:54.587Z,11.40
2017-08-31T05:16:57.165Z,11.23
2017-08-31T05:17:59.717Z,11.57
2017-08-31T05:19:02.275Z,12.00
2017-08-31T05:20:04.826Z,11.30
2017-08-31T05:21:07.429Z,10.70
2017-08-31T05:22:09.985Z,11.52
2017-08-31T05:23:12.551Z,11.40
2017-08-31T05:24:15.111Z,11.88
2017-08-31T05:25:17.638Z,11.55
2017-08-31T05:26:20.243Z,11.43
2017-08-31T05:27:22.803Z,11.95
2017-08-31T05:28:25.355Z,11.75
2017-08-31T05:29:27.923Z,12.45
2017-08-31T05:30:30.494Z,12.10
2017-08-31T05:31:33.099Z,11.80
2017-08-31T05:32:35.637Z,11.90
2017-08-31T05:33:38.188Z,11.23
2017-08-31T05:34:40.763Z,11.15
2017-08-31T05:35:43.350Z,11.60
2017-08-31T05:36:45.971Z,11.63
2017-08-31T05:37:48.535Z,11.48
2017-08-31T05:38:51.082Z,11.40
2017-08-31T05:39:53.639Z,12.80
2017-08-31T05:40:56.463Z,12.57
2017-08-31T05:41:59.085Z,11.05
2017-08-31T05:43:01.641Z,11.15
2017-08-31T05:44:04.173Z,12.48
2017-08-31T05:45:06.736Z,11.75
2017-08-31T05:46:09.314Z,11.52
2017-08-31T05:47:12.728Z,12.50
2017-08-31T05:48:15.265Z,11.40
2017-08-31T05:49:17.831Z,11.57
2017-08-31T05:50:21.140Z,11.10
2017-08-31T05:51:23.703Z,11.88
2017-08-31T05:52:26.330Z,11.38
2017-08-31T05:53:28.907Z,11.95
2017-08-31T05:54:31.805Z,12.82
2017-08-31T05:55:34.363Z,12.63
2017-08-31T05:56:36.952Z,12.40
2017-08-31T05:57:40.364Z,12.20
2017-08-31T05:58:42.957Z,12.18
2017-08-31T05:59:45.490Z,12.45
2017-08-31T06:00:48.083Z,11.12
2017-08-31T06:01:50.659Z,10.90
2017-08-31T06:02:53.259Z,11.25
2017-08-31T06:03:55.790Z,11.90
2017-08-31T06:04:58.365Z,11.77
2017-08-31T06:06:01.249Z,12.07
2017-08-31T06:07:03.818Z,12.48
2017-08-31T06:08:06.438Z,10.70
2017-08-31T06:09:09.014Z,11.00
2017-08-31T06:10:11.571Z,11.12
2017-08-31T06:11:14.134Z,11.85
2017-08-31T06:12:16.718Z,12.07
2017-08-31T06:13:19.316Z,11.65
2017-08-31T06:14:21.859Z,10.63
2017-08-31T06:15:24.443Z,11.75
2017-08-31T06:16:27.013Z,10.70
2017-08-31T06:17:29.598Z,11.70
2017-08-31T06:18:32.212Z,12.37
2017-08-31T06:19:34.788Z,11.40
2017-08-31T06:20:37.346Z,11.68
2017-08-31T06:21:39.903Z,11.10
2017-08-31T06:22:42.465Z,10.93
2017-08-31T06:23:45.085Z,10.32
2017-08-31T06:24:47.699Z,10.60
2017-08-31T06:25:51.038Z,10.20
2017-08-31T06:26:53.661Z,10.23
2017-08-31T06:27:56.210Z,10.90
2017-08-31T06:28:59.589Z,9.98
2017-08-31T06:30:02.250Z,10.45
2017-08-31T06:31:04.819Z,10.75
2017-08-31T06:32:07.400Z,9.52
2017-08-31T06:33:09.989Z,9.95
2017-08-31T06:34:12.612Z,9.90
2017-08-31T06:35:15.850Z,9.10
2017-08-31T06:36:18.404Z,10.15
2017-08-31T06:37:20.971Z,9.70
2017-08-31T06:38:24.303Z,10.43
2017-08-31T06:39:26.929Z,10.38
2017-08-31T06:40:29.570Z,10.00
2017-08-31T06:41:32.125Z,9.90
2017-08-31T06:42:34.683Z,9.55
2017-08-31T06:43:37.256Z,9.98
2017-08-31T06:44:39.880Z,10.98
2017-08-31T06:45:42.425Z,9.07
2017-08-31T06:46:44.978Z,9.80
2017-08-31T06:47:47.534Z,9.43
2017-08-31T06:48:50.093Z,9.27
2017-08-31T06:49:52.751Z,9.65
2017-08-31T06:50:55.310Z,8.95
2017-08-31T06:51:57.869Z,8.73
2017-08-31T06:53:00.462Z,8.73
2017-08-31T06:54:03.028Z,9.35
2017-08-31T06:55:05.691Z,9.50
2017-08-31T06:56:08.266Z,8.48
2017-08-31T06:57:11.738Z,9.15
2017-08-31T06:58:14.306Z,9.20
2017-08-31T06:59:16.969Z,8.55
2017-08-31T07:00:19.624Z,9.23
2017-08-31T07:01:22.258Z,8.40
2017-08-31T07:02:24.827Z,8.77
2017-08-31T07:03:27.391Z,9.27
2017-08-31T07:04:29.957Z,8.30
2017-08-31T07:05:32.547Z,9.10
2017-08-31T07:06:35.181Z,8.63
2017-08-31T07:07:37.815Z,9.50
2017-08-31T07:08:41.142Z,8.80
2017-08-31T07:09:43.677Z,9.07
2017-08-31T07:10:46.299Z,8.57
2017-08-31T07:11:48.851Z,8.80
2017-08-31T07:12:51.402Z,8.13
2017-08-31T07:13:53.947Z,8.17
2017-08-31T07:14:56.514Z,8.60
2017-08-31T07:15:59.142Z,8.47
2017-08-31T07:17:01.698Z,8.20
2017-08-31T07:18:04.320Z,8.83
2017-08-31T07:19:06.898Z,8.37
2017-08-31T07:20:09.455Z,8.30
2017-08-31T07:21:12.391Z,8.07
2017-08-31T07:22:14.957Z,8.23
2017-08-31T07:23:17.519Z,7.20
2017-08-31T07:24:20.097Z,7.43
2017-08-31T07:25:22.658Z,8.37
2017-08-31T07:26:25.298Z,8.97
2017-08-31T07:27:27.865Z,7.77
2017-08-31T07:28:30.435Z,7.47
2017-08-31T07:29:33.014Z,8.20
2017-08-31T07:30:35.574Z,8.17
2017-08-31T07:31:38.237Z,7.30
2017-08-31T07:32:40.936Z,8.40
2017-08-31T07:33:43.529Z,7.40
2017-08-31T07:34:46.136Z,7.50
2017-08-31T07:35:48.708Z,7.80
2017-08-31T07:36:51.335Z,7.80
2017-08-31T07:37:54.559Z,7.70
2017-08-31T07:38:57.147Z,7.37
2017-08-31T07:39:59.742Z,7.57
2017-08-31T07:41:02.344Z,7.30
2017-08-31T07:42:04.943Z,7.00
2017-08-31T07:43:07.579Z,7.63
2017-08-31T07:44:10.216Z,7.53
2017-08-31T07:45:13.548Z,7.03
2017-08-31T07:46:16.095Z,7.60
2017-08-31T07:47:18.700Z,6.90
2017-08-31T07:48:21.242Z,7.13
2017-08-31T07:49:23.857Z,7.37
2017-08-31T07:50:26.398Z,7.07
2017-08-31T07:51:28.944Z,7.40
2017-08-31T07:52:32.218Z,6.83
2017-08-31T07:53:34.773Z,6.97
2017-08-31T07:54:37.397Z,7.27
2017-08-31T07:55:39.950Z,7.10
2017-08-31T07:56:42.516Z,6.73
2017-08-31T07:57:45.223Z,6.93
2017-08-31T07:58:47.763Z,6.90
2017-08-31T07:59:50.334Z,7.93
2017-08-31T08:00:52.897Z,7.20
2017-08-31T08:01:55.463Z,6.40
2017-08-31T08:02:58.056Z,7.27
2017-08-31T08:04:00.596Z,6.53
2017-08-31T08:05:03.184Z,7.73
2017-08-31T08:06:05.738Z,6.23
2017-08-31T08:07:08.295Z,7.70
2017-08-31T08:08:10.834Z,6.90
2017-08-31T08:09:13.398Z,7.03
2017-08-31T08:10:15.982Z,6.60
2017-08-31T08:11:18.759Z,7.70
2017-08-31T08:12:21.316Z,7.23
2017-08-31T08:13:23.995Z,7.37
2017-08-31T08:14:26.552Z,7.07
2017-08-31T08:15:29.623Z,7.03
2017-08-31T08:16:32.207Z,7.30
2017-08-31T08:17:34.756Z,7.53
2017-08-31T08:18:37.298Z,7.00
2017-08-31T08:19:40.092Z,6.73
2017-08-31T08:20:42.714Z,6.20
2017-08-31T08:21:45.282Z,6.87
2017-08-31T08:22:47.871Z,6.60
2017-08-31T08:23:50.433Z,7.63
2017-08-31T08:24:53.411Z,7.83
2017-08-31T08:25:56.012Z,7.10
2017-08-31T08:26:59.186Z,7.63
2017-08-31T08:28:02.038Z,7.40
2017-08-31T08:29:04.583Z,7.00
2017-08-31T08:30:07.133Z,7.90
2017-08-31T08:31:09.720Z,7.73
2017-08-31T08:32:12.634Z,7.63
2017-08-31T08:33:15.977Z,7.77
2017-08-31T08:34:18.626Z,7.77
2017-08-31T08:35:21.972Z,8.00
2017-08-31T08:36:25.064Z,7.67
2017-08-31T08:37:27.634Z,7.10
2017-08-31T08:38:30.189Z,6.87
2017-08-31T08:39:32.788Z,7.70
2017-08-31T08:40:35.353Z,7.10
2017-08-31T08:41:37.965Z,8.00
2017-08-31T08:42:40.516Z,7.87
2017-08-31T08:43:43.087Z,7.00
2017-08-31T08:44:45.655Z,8.40
2017-08-31T08:45:48.216Z,7.50
2017-08-31T08:46:51.519Z,7.30
2017-08-31T08:47:54.064Z,7.37
2017-08-31T08:48:56.626Z,7.40
2017-08-31T08:49:59.199Z,7.53
2017-08-31T08:51:01.738Z,7.80
2017-08-31T08:52:04.367Z,7.80
2017-08-31T08:53:06.931Z,7.50
2017-08-31T08:54:09.490Z,8.20
2017-08-31T08:55:12.041Z,8.73
2017-08-31T08:56:14.655Z,7.67
2017-08-31T08:57:17.338Z,7.87
2017-08-31T08:58:19.979Z,8.70
2017-08-31T08:59:22.618Z,9.17
2017-08-31T09:00:25.169Z,9.23
2017-08-31T09:01:27.711Z,9.00
2017-08-31T09:02:30.296Z,9.23
2017-08-31T09:03:32.828Z,8.30
2017-08-31T09:04:35.649Z,8.27
2017-08-31T09:05:38.549Z,8.37
2017-08-31T09:06:41.132Z,8.00
2017-08-31T09:07:44.542Z,9.00
2017-08-31T09:08:47.200Z,8.40
2017-08-31T09:09:50.787Z,7.77
2017-08-31T09:10:53.370Z,8.90
2017-08-31T09:11:56.557Z,8.87
2017-08-31T09:12:59.344Z,9.17
2017-08-31T09:14:01.906Z,9.27
2017-08-31T09:15:04.469Z,8.90
2017-08-31T09:16:07.117Z,9.40
2017-08-31T09:17:09.704Z,9.20
2017-08-31T09:18:12.296Z,8.80
2017-08-31T09:19:14.833Z,9.80
2017-08-31T09:20:17.396Z,9.60
2017-08-31T09:21:19.968Z,8.30
2017-08-31T09:22:22.528Z,8.70
2017-08-31T09:23:25.116Z,8.80
2017-08-31T09:24:27.732Z,9.30
2017-08-31T09:25:30.707Z,9.30
2017-08-31T09:26:33.271Z,8.93
2017-08-31T09:27:35.826Z,9.10
2017-08-31T09:28:38.477Z,9.07
2017-08-31T09:29:41.043Z,8.60
2017-08-31T09:30:43.593Z,9.40
2017-08-31T09:31:46.148Z,8.50
2017-08-31T09:32:48.691Z,9.03
2017-08-31T09:33:51.512Z,9.70
2017-08-31T09:34:54.049Z,8.40
2017-08-31T09:35:56.619Z,9.27
2017-08-31T09:36:59.257Z,9.07
2017-08-31T09:38:01.814Z,9.30
2017-08-31T09:39:04.419Z,9.77
2017-08-31T09:40:06.957Z,8.80
2017-08-31T09:41:09.994Z,10.10
2017-08-31T09:42:12.533Z,9.07
2017-08-31T09:43:15.096Z,9.67
2017-08-31T09:44:17.683Z,9.20
2017-08-31T09:45:20.231Z,8.97
2017-08-31T09:46:22.786Z,8.50
2017-08-31T09:47:25.338Z,10.07
2017-08-31T09:48:27.890Z,9.13
2017-08-31T09:49:30.479Z,8.67
2017-08-31T09:50:33.063Z,9.17
2017-08-31T09:51:35.628Z,8.80
2017-08-31T09:52:38.177Z,9.20
2017-08-31T09:53:40.722Z,8.37
2017-08-31T09:54:43.313Z,9.00
2017-08-31T09:55:45.846Z,8.70
2017-08-31T09:56:48.395Z,8.87
2017-08-31T09:57:50.956Z,9.07
2017-08-31T09:58:53.512Z,8.37
2017-08-31T09:59:56.132Z,9.13
2017-08-31T10:00:58.699Z,9.40
2017-08-31T10:02:01.248Z,9.17
2017-08-31T10:03:03.838Z,9.50
2017-08-31T10:04:06.463Z,8.77
2017-08-31T10:05:09.068Z,9.50
2017-08-31T10:06:11.619Z,8.37
2017-08-31T10:07:15.012Z,9.00
2017-08-31T10:08:18.401Z,8.20
2017-08-31T10:09:21.892Z,8.23
2017-08-31T10:10:24.535Z,8.00
2017-08-31T10:11:27.230Z,8.13
2017-08-31T10:12:29.808Z,8.40
2017-08-31T10:13:32.395Z,7.43
2017-08-31T10:14:34.969Z,8.20
2017-08-31T10:15:37.855Z,7.37
2017-08-31T10:16:40.480Z,8.10
2017-08-31T10:17:43.038Z,8.53
2017-08-31T10:18:45.593Z,7.63
2017-08-31T10:19:48.170Z,7.50
2017-08-31T10:20:50.763Z,8.17
2017-08-31T10:21:53.412Z,7.50
2017-08-31T10:22:55.980Z,7.33
2017-08-31T10:23:58.576Z,7.80
2017-08-31T10:25:01.894Z,7.30
2017-08-31T10:26:04.514Z,7.30
2017-08-31T10:27:07.083Z,7.50
2017-08-31T10:28:09.630Z,7.30
2017-08-31T10:29:12.195Z,7.00
2017-08-31T10:30:14.730Z,6.80
2017-08-31T10:31:17.332Z,7.07
2017-08-31T10:32:19.902Z,6.53
2017-08-31T10:33:22.461Z,6.60
2017-08-31T10:34:25.032Z,6.87
2017-08-31T10:35:28.073Z,7.03
2017-08-31T10:36:30.680Z,6.40
2017-08-31T10:37:33.244Z,6.90
2017-08-31T10:38:35.853Z,5.97
2017-08-31T10:39:38.408Z,6.70
2017-08-31T10:40:40.948Z,6.60
2017-08-31T10:41:43.552Z,6.17
2017-08-31T10:42:46.114Z,6.60
2017-08-31T10:43:48.660Z,7.03
2017-08-31T10:44:51.218Z,6.33
2017-08-31T10:45:53.762Z,6.67
2017-08-31T10:46:56.384Z,6.97
2017-08-31T10:47:58.966Z,6.73
2017-08-31T10:49:01.520Z,6.50
2017-08-31T10:50:04.079Z,6.20
2017-08-31T10:51:06.626Z,6.40
2017-08-31T10:52:09.278Z,6.97
2017-08-31T10:53:11.855Z,6.30
2017-08-31T10:54:14.397Z,6.73
2017-08-31T10:55:16.975Z,6.43
2017-08-31T10:56:19.515Z,6.67
2017-08-31T10:57:22.155Z,6.40
2017-08-31T10:58:24.712Z,7.17
2017-08-31T10:59:27.245Z,6.47
2017-08-31T11:00:29.798Z,6.37
2017-08-31T11:01:32.336Z,6.70
2017-08-31T11:02:34.948Z,7.30
2017-08-31T11:03:37.514Z,6.40
2017-08-31T11:04:40.073Z,6.97
2017-08-31T11:05:42.649Z,5.80
2017-08-31T11:06:45.204Z,6.60
2017-08-31T11:07:48.558Z,6.20
2017-08-31T11:08:51.266Z,6.50
2017-08-31T11:09:53.810Z,6.60
2017-08-31T11:10:56.361Z,6.67
2017-08-31T11:11:58.906Z,6.67
2017-08-31T11:13:01.512Z,5.93
2017-08-31T11:14:04.058Z,6.60
2017-08-31T11:15:06.605Z,7.07
2017-08-31T11:16:09.169Z,6.67
2017-08-31T11:17:11.724Z,6.57
2017-08-31T11:18:14.360Z,6.40
2017-08-31T11:19:16.898Z,6.40
2017-08-31T11:20:19.455Z,6.43
2017-08-31T11:21:22.058Z,5.60
2017-08-31T11:22:24.616Z,6.73
2017-08-31T11:23:27.234Z,6.70
2017-08-31T11:24:29.772Z,6.17
2017-08-31T11:25:32.306Z,5.27
2017-08-31T11:26:34.954Z,5.43
2017-08-31T11:27:37.576Z,5.50
2017-08-31T11:28:40.181Z,5.63
2017-08-31T11:29:42.771Z,4.80
2017-08-31T11:30:45.307Z,5.33
2017-08-31T11:31:47.864Z,5.00
2017-08-31T11:32:50.404Z,4.70
2017-08-31T11:33:53.033Z,5.30
2017-08-31T11:34:55.542Z,5.20
2017-08-31T11:35:58.137Z,4.50
2017-08-31T11:37:00.802Z,4.90
2017-08-31T11:38:03.300Z,5.50
2017-08-31T11:39:05.978Z,5.37
2017-08-31T11:40:08.694Z,4.90
2017-08-31T11:41:11.247Z,5.43
2017-08-31T11:42:13.836Z,5.37
2017-08-31T11:43:16.477Z,5.20
2017-08-31T11:44:19.095Z,5.30
2017-08-31T11:45:21.669Z,5.60
2017-08-31T11:46:24.224Z,6.07
2017-08-31T11:47:26.790Z,5.83
2017-08-31T11:48:29.411Z,5.20
2017-08-31T11:49:32.042Z,5.80
2017-08-31T11:50:34.664Z,5.40
2017-08-31T11:51:37.740Z,4.97
2017-08-31T11:52:40.323Z,4.60
2017-08-31T11:53:43.675Z,5.50
2017-08-31T11:54:46.277Z,5.07
2017-08-31T11:55:48.823Z,4.20
2017-08-31T11:56:51.381Z,5.10
2017-08-31T11:57:53.939Z,4.53
2017-08-31T11:58:56.508Z,4.10
2017-08-31T11:59:59.874Z,4.80
2017-08-31T12:01:02.454Z,4.80
2017-08-31T12:02:05.000Z,4.57
2017-08-31T12:03:07.540Z,4.43
2017-08-31T12:04:10.096Z,4.40
2017-08-31T12:05:12.747Z,4.80
2017-08-31T12:06:15.349Z,4.97
2017-08-31T12:07:17.911Z,5.07
2017-08-31T12:08:20.468Z,5.03
2017-08-31T12:09:23.013Z,4.73
2017-08-31T12:10:25.777Z,4.80
2017-08-31T12:11:28.346Z,4.63
2017-08-31T12:12:30.911Z,5.30
2017-08-31T12:13:33.471Z,5.53
2017-08-31T12:14:36.024Z,4.47
2017-08-31T12:15:38.637Z,5.17
2017-08-31T12:16:41.193Z,4.80
2017-08-31T12:17:44.520Z,4.83
2017-08-31T12:18:47.083Z,4.60
2017-08-31T12:19:49.634Z,5.10
2017-08-31T12:20:52.408Z,4.70
2017-08-31T12:21:54.933Z,4.77
2017-08-31T12:22:57.471Z,4.60
2017-08-31T12:24:00.002Z,4.10
2017-08-31T12:25:02.529Z,3.90
2017-08-31T12:26:05.119Z,3.70
2017-08-31T12:27:07.655Z,4.87
2017-08-31T12:28:10.269Z,5.10
2017-08-31T12:29:12.856Z,4.30
2017-08-31T12:30:15.411Z,4.20
2017-08-31T12:31:17.992Z,4.30
2017-08-31T12:32:20.542Z,4.00
2017-08-31T12:33:23.083Z,4.07
2017-08-31T12:34:25.621Z,4.07
2017-08-31T12:35:28.166Z,4.10
2017-08-31T12:36:30.767Z,3.53
2017-08-31T12:37:33.315Z,4.00
2017-08-31T12:38:35.867Z,4.03
2017-08-31T12:39:38.419Z,4.10
2017-08-31T12:40:40.945Z,3.50
2017-08-31T12:41:43.639Z,4.30
2017-08-31T12:42:46.178Z,4.07
2017-08-31T12:43:48.745Z,3.30
2017-08-31T12:44:51.266Z,3.57
2017-08-31T12:45:53.819Z,3.73
2017-08-31T12:46:56.473Z,3.37
2017-08-31T12:47:59.039Z,3.80
2017-08-31T12:49:01.576Z,3.27
2017-08-31T12:50:04.117Z,3.20
2017-08-31T12:51:06.771Z,3.60
2017-08-31T12:52:09.372Z,3.37
2017-08-31T12:53:11.920Z,3.67
2017-08-31T12:54:14.455Z,3.90
2017-08-31T12:55:16.993Z,3.17
2017-08-31T12:56:20.320Z,3.10
2017-08-31T12:57:22.911Z,3.20
2017-08-31T12:58:25.499Z,3.50
2017-08-31T12:59:28.049Z,3.00
2017-08-31T13:00:30.662Z,3.00
2017-08-31T13:01:33.223Z,3.63
2017-08-31T13:02:36.000Z,3.00
2017-08-31T13:03:38.562Z,3.20
2017-08-31T13:04:41.113Z,3.10
2017-08-31T13:05:43.658Z,3.00
2017-08-31T13:06:46.223Z,3.10
2017-08-31T13:07:48.918Z,3.00
2017-08-31T13:08:51.468Z,3.27
2017-08-31T13:09:54.081Z,3.00
2017-08-31T13:10:57.337Z,3.03
2017-08-31T13:11:59.942Z,2.90
2017-08-31T13:13:02.695Z,3.40
2017-08-31T13:14:06.020Z,3.57
2017-08-31T13:15:08.582Z,3.20
2017-08-31T13:16:11.194Z,2.70
2017-08-31T13:17:13.816Z,3.60
2017-08-31T13:18:16.399Z,5.50
2017-08-31T13:19:18.960Z,5.40
2017-08-31T13:20:21.516Z,6.23
2017-08-31T13:21:24.104Z,8.23
2017-08-31T13:22:26.648Z,8.53
2017-08-31T13:23:29.261Z,9.23
2017-08-31T13:24:31.815Z,8.00
2017-08-31T13:25:34.384Z,8.48
2017-08-31T13:26:36.946Z,8.00
2017-08-31T13:27:39.499Z,7.85
2017-08-31T13:28:42.194Z,8.45
2017-08-31T13:29:44.751Z,7.97
2017-08-31T13:30:47.301Z,8.50
2017-08-31T13:31:50.505Z,7.55
2017-08-31T13:32:53.144Z,7.68
2017-08-31T13:33:55.770Z,7.53
2017-08-31T13:34:58.318Z,7.60
2017-08-31T13:36:00.971Z,6.82
2017-08-31T13:37:03.557Z,6.28
2017-08-31T13:38:06.101Z,6.35
2017-08-31T13:39:08.719Z,6.85
2017-08-31T13:40:11.339Z,6.82
2017-08-31T13:41:14.003Z,6.53
2017-08-31T13:42:16.711Z,6.70
2017-08-31T13:43:19.297Z,7.25
2017-08-31T13:44:21.899Z,7.45
2017-08-31T13:45:24.474Z,5.90
2017-08-31T13:46:26.994Z,6.37
2017-08-31T13:47:29.576Z,6.53
2017-08-31T13:48:32.109Z,5.20